Time;durP1;ratioP1;P1;durP2;ratioP2;P2;SDS_P1;SDS_P2;PMS_P1;PMS_P2;Temp;Humidity;BMP_temperature;BMP_pressure;BME280_temperature;BME280_humidity;BME280_pressure;Samples;Min_cycle;Max_cycle;Signal;HPM_P1;HPM_P2
2021/08/30 05:02:46;;;;;;;8.80;7.97;;;;;;;20.23;69.86;94533.22;5049610;23;20118;-74
2021/08/30 05:05:11;;;;;;;8.88;8.18;;;;;;;18.98;71.67;94532.59;4933925;29;20070;-75
2021/08/30 05:07:37;;;;;;;7.32;6.80;;;;;;;20.80;67.08;94529.34;4934143;29;20031;-74
2021/08/30 05:10:03;;;;;;;5.35;4.97;;;;;;;23.43;57.08;94529.66;4928084;29;20508;-74
2021/08/30 05:12:28;;;;;;;6.57;6.03;;;;;;;23.80;56.25;94534.75;4914640;29;20507;-74
2021/08/30 05:14:54;;;;;;;6.13;5.55;;;;;;;23.77;54.93;94532.63;4933069;29;20453;-74
2021/08/30 05:17:20;;;;;;;7.85;7.30;;;;;;;23.89;55.68;94538.44;4914176;29;20125;-74
2021/08/30 05:19:45;;;;;;;6.78;6.38;;;;;;;24.98;52.57;94543.16;4899743;29;20111;-74
2021/08/30 05:22:13;;;;;;;7.32;6.82;;;;;;;25.74;51.64;94536.75;4931264;29;20035;-74
2021/08/30 05:24:39;;;;;;;7.43;5.18;;;;;;;24.94;52.00;94544.78;4932863;29;20024;-74
2021/08/30 05:27:04;;;;;;;6.10;5.53;;;;;;;26.08;49.46;94533.06;4915445;29;20038;-74
2021/08/30 05:29:30;;;;;;;6.95;6.38;;;;;;;26.44;49.19;94543.41;4914640;29;20027;-74
2021/08/30 05:31:55;;;;;;;5.78;4.97;;;;;;;26.89;47.98;94550.19;4915400;29;20036;-74
2021/08/30 05:34:22;;;;;;;5.10;4.70;;;;;;;27.88;45.14;94541.25;4930913;29;20027;-74
2021/08/30 05:36:47;;;;;;;5.32;4.82;;;;;;;28.30;43.84;94545.69;4900208;29;20028;-75
2021/08/30 05:39:12;;;;;;;5.72;5.20;;;;;;;27.80;43.93;94539.25;4946055;29;20038;-74
2021/08/30 05:41:38;;;;;;;6.15;5.65;;;;;;;28.32;43.59;94550.75;4918889;29;20020;-74
2021/08/30 05:44:04;;;;;;;4.97;4.57;;;;;;;29.53;40.73;94544.00;4932892;29;20412;-73
2021/08/30 05:46:29;;;;;;;5.65;5.28;;;;;;;29.52;40.18;94545.09;4913741;29;20099;-75
2021/08/30 05:48:55;;;;;;;5.82;5.50;;;;;;;29.73;40.55;94548.91;4930162;29;20524;-74
2021/08/30 05:51:20;;;;;;;5.20;4.90;;;;;;;30.13;40.36;94546.44;4929444;29;20031;-74
2021/08/30 05:53:46;;;;;;;6.00;5.50;;;;;;;30.36;39.85;94549.91;4931165;29;20556;-74
2021/08/30 05:56:11;;;;;;;5.10;4.75;;;;;;;29.55;40.30;94541.03;4928912;29;20032;-74
2021/08/30 05:58:37;;;;;;;5.80;5.35;;;;;;;28.96;41.31;94548.03;4930953;29;20477;-75
2021/08/30 06:01:03;;;;;;;5.80;5.30;;;;;;;27.37;43.71;94549.09;4928853;29;20047;-75
2021/08/30 06:03:28;;;;;;;5.32;4.95;;;;;;;24.43;52.21;94552.00;4930843;29;20023;-75
2021/08/30 06:05:54;;;;;;;5.15;4.80;;;;;;;24.28;53.42;94549.34;4930021;29;20386;-73
2021/08/30 06:08:19;;;;;;;4.95;4.57;;;;;;;24.20;54.35;94557.84;4929722;29;20047;-74
2021/08/30 06:10:45;;;;;;;4.43;4.13;;;;;;;24.60;52.16;94552.50;4931971;29;20036;-74
2021/08/30 06:13:10;;;;;;;5.07;4.75;;;;;;;24.65;52.83;94552.50;4929264;29;20493;-74
2021/08/30 06:15:35;;;;;;;6.63;6.22;;;;;;;25.37;50.36;94553.88;4929750;29;20035;-75
2021/08/30 06:18:01;;;;;;;5.25;4.95;;;;;;;29.40;41.04;94544.03;4928949;29;20032;-75
2021/08/30 06:20:26;;;;;;;5.82;5.43;;;;;;;30.22;39.16;94555.31;4930500;29;20028;-74
2021/08/30 06:22:52;;;;;;;6.13;5.70;;;;;;;27.97;43.19;94549.38;4930502;29;20059;-74
2021/08/30 06:25:17;;;;;;;5.82;5.38;;;;;;;24.47;51.68;94558.34;4930080;29;20789;-75
2021/08/30 06:27:43;;;;;;;5.70;5.20;;;;;;;24.11;53.44;94552.25;4914251;29;20091;-74
2021/08/30 06:30:09;;;;;;;4.43;4.10;;;;;;;23.69;54.29;94556.16;4930576;29;20074;-74
2021/08/30 06:32:34;;;;;;;4.88;4.57;;;;;;;24.00;54.80;94563.09;4930263;29;20040;-74
2021/08/30 06:35:00;;;;;;;5.90;5.05;;;;;;;24.47;53.34;94558.34;4928377;29;20035;-75
2021/08/30 06:37:25;;;;;;;4.85;4.47;;;;;;;24.53;53.44;94559.16;4929935;29;20038;-73
2021/08/30 06:39:51;;;;;;;4.40;4.00;;;;;;;24.79;52.06;94563.31;4928498;29;20456;-77
2021/08/30 06:42:16;;;;;;;4.95;4.65;;;;;;;27.09;46.20;94544.66;4931544;29;20037;-77
2021/08/30 06:44:42;;;;;;;5.13;4.80;;;;;;;30.73;39.22;94563.72;4929232;29;20404;-73
2021/08/30 06:47:07;;;;;;;4.88;4.57;;;;;;;30.26;38.95;94561.66;4913486;29;20024;-74
2021/08/30 06:49:33;;;;;;;5.28;4.90;;;;;;;31.34;37.49;94562.13;4929810;29;20034;-75
2021/08/30 06:51:58;;;;;;;4.60;4.28;;;;;;;32.23;34.59;94559.03;4929972;29;20024;-73
2021/08/30 06:54:24;;;;;;;4.45;3.90;;;;;;;32.24;34.42;94561.38;4929682;29;20087;-72
2021/08/30 06:56:49;;;;;;;4.20;3.60;;;;;;;29.18;38.17;94561.50;4930046;29;20031;-74
2021/08/30 06:59:15;;;;;;;4.13;3.92;;;;;;;25.19;46.66;94565.09;4929988;29;20508;-74
2021/08/30 07:01:40;;;;;;;4.57;4.30;;;;;;;25.44;48.35;94562.34;4924672;29;20141;-74
2021/08/30 07:04:05;;;;;;;3.80;3.60;;;;;;;25.20;49.09;94563.25;4910848;29;20100;-74
2021/08/30 07:06:31;;;;;;;4.35;4.05;;;;;;;25.07;49.55;94561.97;4909919;29;20040;-72
2021/08/30 07:08:57;;;;;;;4.25;3.95;;;;;;;24.94;48.97;94562.53;4910190;29;20083;-73
2021/08/30 07:11:22;;;;;;;4.15;3.85;;;;;;;24.95;49.05;94564.91;4910943;29;20024;-73
2021/08/30 07:13:48;;;;;;;5.38;4.05;;;;;;;24.86;48.58;94565.72;4892778;29;20031;-74
2021/08/30 07:16:13;;;;;;;4.30;4.00;;;;;;;25.09;49.47;94575.75;4894857;29;20032;-73
2021/08/30 07:18:39;;;;;;;5.15;4.75;;;;;;;25.03;49.99;94571.53;4910284;29;20027;-73
2021/08/30 07:21:04;;;;;;;4.70;4.40;;;;;;;24.26;50.08;94572.66;4894871;29;20039;-74
2021/08/30 07:23:31;;;;;;;5.10;4.80;;;;;;;24.39;52.28;94569.50;4909435;29;20031;-74
2021/08/30 07:25:57;;;;;;;5.47;4.82;;;;;;;24.77;50.19;94564.66;4909985;29;20044;-73
2021/08/30 07:28:23;;;;;;;4.32;3.90;;;;;;;24.91;48.48;94571.03;4910783;29;20024;-73
2021/08/30 07:30:49;;;;;;;4.50;4.20;;;;;;;24.67;51.51;94563.63;4908925;29;20134;-74
2021/08/30 07:33:14;;;;;;;4.85;4.55;;;;;;;24.76;50.35;94568.38;4894590;29;20036;-74
2021/08/30 07:35:40;;;;;;;4.38;4.07;;;;;;;24.50;51.16;94565.75;4893062;29;20044;-73
2021/08/30 07:38:05;;;;;;;5.47;4.55;;;;;;;24.21;51.63;94575.28;4895065;29;20091;-73
2021/08/30 07:40:30;;;;;;;4.55;4.25;;;;;;;24.63;51.80;94567.84;4908674;29;20032;-73
2021/08/30 07:42:56;;;;;;;5.03;4.53;;;;;;;24.48;51.84;94567.09;4910245;29;20048;-72
2021/08/30 07:45:21;;;;;;;4.97;4.57;;;;;;;23.78;53.63;94563.31;4909909;29;20029;-74
2021/08/30 07:47:47;;;;;;;4.88;4.57;;;;;;;23.61;53.95;94570.69;4909367;29;20028;-73
2021/08/30 07:50:12;;;;;;;5.15;4.75;;;;;;;23.58;52.68;94577.28;4911749;29;20052;-74
2021/08/30 07:52:38;;;;;;;5.03;4.63;;;;;;;23.61;54.20;94558.25;4908407;29;20034;-75
2021/08/30 07:55:04;;;;;;;4.53;4.13;;;;;;;24.12;52.96;94572.38;4894583;29;20052;-74
2021/08/30 07:57:30;;;;;;;4.35;4.05;;;;;;;24.12;50.85;94564.44;4908956;29;20068;-74
2021/08/30 07:59:55;;;;;;;5.25;4.30;;;;;;;23.72;54.14;94566.22;4910197;29;20036;-73
2021/08/30 08:02:21;;;;;;;4.95;4.65;;;;;;;24.10;52.00;94568.38;4892975;29;20056;-73
2021/08/30 08:04:46;;;;;;;37.60;7.80;;;;;;;24.05;52.49;94565.72;4909482;29;20047;-72
2021/08/30 08:07:12;;;;;;;20.73;6.60;;;;;;;24.16;52.85;94571.84;4910165;29;20029;-74
2021/08/30 08:09:37;;;;;;;22.48;7.22;;;;;;;24.02;53.66;94564.41;4908578;29;20028;-73
2021/08/30 08:12:03;;;;;;;92.15;15.75;;;;;;;24.11;53.39;94578.72;4909958;29;20036;-74
2021/08/30 08:14:28;;;;;;;93.72;19.08;;;;;;;23.88;54.55;94575.78;4909942;29;20038;-73
2021/08/30 08:16:54;;;;;;;433.85;79.75;;;;;;;24.45;51.28;94579.00;4910027;29;20064;-72
2021/08/30 08:19:19;;;;;;;156.27;30.15;;;;;;;23.70;52.43;94573.59;4908465;29;20501;-73
2021/08/30 08:21:46;;;;;;;5.55;4.72;;;;;;;23.83;53.22;94565.16;4925667;29;20040;-74
2021/08/30 08:24:12;;;;;;;11.88;6.10;;;;;;;23.70;54.75;94571.75;4909171;29;20032;-74
2021/08/30 08:26:37;;;;;;;112.78;17.35;;;;;;;23.95;54.37;94577.09;4909385;29;20047;-73
2021/08/30 08:29:03;;;;;;;145.73;22.33;;;;;;;24.36;53.83;94571.88;4894602;29;20401;-74
2021/08/30 08:31:28;;;;;;;13.85;6.07;;;;;;;23.63;54.93;94564.06;4923651;29;20032;-73
2021/08/30 08:33:54;;;;;;;23.73;8.10;;;;;;;24.24;55.24;94569.47;4911246;29;20083;-73
2021/08/30 08:36:21;;;;;;;56.83;13.95;;;;;;;24.33;54.63;94567.09;4892702;29;20036;-77
2021/08/30 08:38:46;;;;;;;209.93;33.20;;;;;;;24.72;53.18;94573.44;4895956;29;20576;-74
2021/08/30 08:41:12;;;;;;;13.07;5.70;;;;;;;24.46;54.26;94569.22;4912360;29;20028;-75
2021/08/30 08:43:37;;;;;;;11.73;6.30;;;;;;;24.30;53.82;94571.09;4897437;29;20572;-75
2021/08/30 08:46:03;;;;;;;5.70;5.13;;;;;;;24.30;53.52;94557.84;4912696;29;20032;-74
2021/08/30 08:48:28;;;;;;;11.98;5.63;;;;;;;24.43;52.62;94559.97;4896392;29;20040;-75
2021/08/30 08:50:54;;;;;;;5.80;5.40;;;;;;;24.25;52.83;94567.63;4897297;29;20035;-75
2021/08/30 08:53:20;;;;;;;6.28;5.45;;;;;;;24.34;53.67;94563.41;4911852;29;20109;-76
2021/08/30 08:55:45;;;;;;;5.78;5.28;;;;;;;24.47;53.33;94565.50;4897338;29;20043;-75
2021/08/30 08:58:16;;;;;;;5.75;5.25;;;;;;;24.57;54.86;94571.59;4911436;29;20024;-74
2021/08/30 09:00:43;;;;;;;5.70;5.30;;;;;;;24.76;54.70;94561.22;4928896;29;20028;-75
2021/08/30 09:03:19;;;;;;;5.10;4.80;;;;;;;24.34;53.30;94550.16;4930151;29;20039;-74
2021/08/30 09:05:44;;;;;;;5.07;4.70;;;;;;;23.33;53.47;94553.41;4929816;29;20492;-73
2021/08/30 09:08:28;;;;;;;5.03;4.63;;;;;;;23.41;56.02;94558.19;4929998;29;20043;-73
2021/08/30 09:10:54;;;;;;;5.18;4.65;;;;;;;24.07;51.35;94553.03;4930422;29;20503;-74
2021/08/30 09:13:25;;;;;;;5.30;4.80;;;;;;;24.33;52.14;94561.81;4914377;29;20035;-73
2021/08/30 09:15:50;;;;;;;13.85;5.50;;;;;;;24.52;52.26;94561.00;4930772;29;20031;-75
2021/08/30 09:18:16;;;;;;;5.43;4.50;;;;;;;24.51;52.08;94545.38;4930015;29;20035;-74
2021/08/30 09:20:41;;;;;;;22.95;6.25;;;;;;;24.54;51.98;94550.13;4929977;29;20032;-74
2021/08/30 09:23:12;;;;;;;32.65;7.25;;;;;;;24.76;52.33;94549.81;4929488;29;20042;-73
2021/08/30 09:25:38;;;;;;;13.23;4.85;;;;;;;24.67;52.43;94553.03;4929605;29;20701;-75
2021/08/30 09:28:04;;;;;;;9.82;4.93;;;;;;;24.65;52.86;94552.50;4928973;29;20038;-74
2021/08/30 09:30:29;;;;;;;5.30;4.90;;;;;;;24.88;51.29;94547.72;4930766;29;20404;-75
2021/08/30 09:32:54;;;;;;;4.90;4.45;;;;;;;25.23;49.52;94555.56;4929074;29;20043;-73
2021/08/30 09:35:20;;;;;;;5.10;4.60;;;;;;;25.27;50.30;94550.50;4929473;29;20032;-73
2021/08/30 09:37:46;;;;;;;5.07;4.72;;;;;;;24.53;50.67;94546.69;4929801;29;20031;-75
2021/08/30 09:40:13;;;;;;;5.25;4.90;;;;;;;24.79;52.85;94544.00;4930125;29;20036;-74
2021/08/30 09:42:51;;;;;;;5.05;4.55;;;;;;;24.63;49.42;94536.06;4929774;29;20024;-74
2021/08/30 09:45:20;;;;;;;5.43;4.30;;;;;;;24.94;50.67;94536.03;4928627;29;20049;-75
2021/08/30 09:47:59;;;;;;;5.28;4.88;;;;;;;25.02;50.89;94540.75;4929774;29;20032;-75
2021/08/30 09:50:32;;;;;;;5.55;5.15;;;;;;;24.41;52.05;94543.53;4928284;29;20039;-74
2021/08/30 09:52:58;;;;;;;5.18;4.78;;;;;;;24.60;52.02;94528.66;4928890;29;20548;-74
2021/08/30 09:55:25;;;;;;;4.95;4.45;;;;;;;24.57;49.92;94542.44;4929312;29;20035;-73
2021/08/30 09:57:51;;;;;;;4.70;4.32;;;;;;;24.72;49.91;94546.13;4928957;29;20090;-74
2021/08/30 10:00:17;;;;;;;5.10;4.60;;;;;;;24.48;48.54;94537.94;4930049;29;20032;-75
2021/08/30 10:02:47;;;;;;;4.65;4.35;;;;;;;24.73;48.10;94543.19;4928432;29;20063;-74
2021/08/30 10:05:14;;;;;;;4.60;4.30;;;;;;;25.00;48.77;94542.91;4928981;29;20055;-73
2021/08/30 10:07:39;;;;;;;4.70;4.40;;;;;;;25.08;48.49;94547.63;4928593;29;20043;-75
2021/08/30 10:10:05;;;;;;;4.45;4.15;;;;;;;25.16;49.01;94531.97;4928744;29;20071;-75
2021/08/30 10:12:31;;;;;;;5.25;4.85;;;;;;;25.05;47.91;94540.22;4929251;29;20031;-74
2021/08/30 10:14:56;;;;;;;4.80;4.47;;;;;;;24.93;48.97;94539.75;4929616;29;20028;-73
2021/08/30 10:17:22;;;;;;;4.97;4.68;;;;;;;24.89;48.44;94534.19;4930513;29;20028;-73
2021/08/30 10:20:04;;;;;;;6.72;5.38;;;;;;;24.78;50.61;94515.91;4928056;29;20055;-73
2021/08/30 10:22:31;;;;;;;4.85;4.43;;;;;;;25.25;49.52;94542.81;4928797;29;20051;-76
2021/08/30 10:24:57;;;;;;;5.30;4.90;;;;;;;24.95;48.25;94533.09;4912317;29;20031;-75
2021/08/30 10:27:32;;;;;;;4.88;4.57;;;;;;;24.66;47.97;94530.22;4929152;29;20024;-73
2021/08/30 10:30:09;;;;;;;5.55;5.13;;;;;;;25.13;47.66;94529.06;4928757;29;20036;-75
2021/08/30 10:32:40;;;;;;;5.00;4.70;;;;;;;25.11;48.13;94544.44;4928312;29;20037;-75
2021/08/30 10:35:12;;;;;;;6.13;4.50;;;;;;;25.34;46.49;94540.38;4928324;29;20044;-76
2021/08/30 10:37:46;;;;;;;4.90;4.50;;;;;;;24.86;47.91;94539.22;4929305;29;20040;-75
2021/08/30 10:40:16;;;;;;;5.00;4.30;;;;;;;24.90;48.37;94535.78;4928324;29;20028;-75
2021/08/30 10:42:41;;;;;;;4.47;4.20;;;;;;;25.29;46.88;94527.94;4912799;29;20034;-75
2021/08/30 10:45:08;;;;;;;4.60;4.30;;;;;;;24.81;48.23;94520.66;4927542;29;20028;-75
2021/08/30 10:47:34;;;;;;;3.97;3.67;;;;;;;24.83;46.06;94522.00;4928537;29;20027;-74
2021/08/30 10:50:00;;;;;;;4.53;4.30;;;;;;;24.88;47.59;94527.31;4927913;29;20433;-77
2021/08/30 10:52:35;;;;;;;3.30;2.97;;;;;;;24.93;46.83;94529.13;4927882;29;20050;-73
2021/08/30 10:55:01;;;;;;;4.75;4.40;;;;;;;24.97;46.77;94527.53;4927503;29;20094;-74
2021/08/30 10:57:37;;;;;;;3.58;3.38;;;;;;;25.19;44.85;94525.34;4929369;29;20031;-75
2021/08/30 11:00:04;;;;;;;5.47;5.07;;;;;;;24.82;48.01;94524.94;4927713;29;20032;-75
2021/08/30 11:02:39;;;;;;;4.30;3.90;;;;;;;24.93;46.19;94515.88;4927373;29;20493;-74
2021/08/30 11:05:08;;;;;;;5.20;4.05;;;;;;;24.77;47.07;94517.75;4928228;29;20036;-73
2021/08/30 11:07:35;;;;;;;4.32;4.03;;;;;;;24.60;47.86;94522.56;4928823;29;20179;-75
2021/08/30 11:10:01;;;;;;;5.35;4.05;;;;;;;24.77;47.86;94517.75;4928025;29;20481;-74
2021/08/30 11:12:26;;;;;;;4.03;3.83;;;;;;;25.09;45.91;94533.31;4927296;29;20374;-75
2021/08/30 11:14:56;;;;;;;4.15;3.85;;;;;;;24.67;47.28;94523.88;4929268;29;20060;-74
2021/08/30 11:17:27;;;;;;;4.18;3.88;;;;;;;24.74;46.38;94525.44;4911608;29;20019;-70
2021/08/30 11:19:54;;;;;;;5.50;3.75;;;;;;;24.64;47.51;94536.88;4927430;29;20064;-73
2021/08/30 11:22:20;;;;;;;4.05;3.75;;;;;;;24.63;45.14;94520.16;4929220;29;20028;-74
2021/08/30 11:24:45;;;;;;;3.75;3.45;;;;;;;24.89;46.37;94517.47;4927438;29;20046;-75
2021/08/30 11:27:17;;;;;;;3.33;3.13;;;;;;;24.90;44.02;94522.53;4927828;29;20035;-74
2021/08/30 11:29:50;;;;;;;3.97;3.63;;;;;;;24.88;44.98;94511.41;4927005;29;20500;-75
2021/08/30 11:32:17;;;;;;;3.28;3.08;;;;;;;24.74;45.76;94520.16;4927101;29;20441;-74
2021/08/30 11:34:43;;;;;;;2.90;2.70;;;;;;;24.70;44.25;94514.59;4927789;29;20703;-76
2021/08/30 11:37:10;;;;;;;3.50;3.08;;;;;;;24.85;45.39;94527.81;4927224;29;20427;-74
2021/08/30 11:39:37;;;;;;;3.97;3.67;;;;;;;25.01;45.11;94520.66;4927560;29;20629;-74
2021/08/30 11:42:11;;;;;;;5.00;3.53;;;;;;;24.77;46.73;94514.31;4927149;29;20040;-74
2021/08/30 11:44:37;;;;;;;3.95;3.67;;;;;;;24.91;44.68;94513.53;4927287;29;20027;-75
2021/08/30 11:47:06;;;;;;;3.78;3.58;;;;;;;24.78;44.32;94507.97;4927370;29;20032;-73
2021/08/30 11:49:33;;;;;;;3.67;3.47;;;;;;;24.63;45.07;94519.38;4926950;29;20126;-74
2021/08/30 11:52:00;;;;;;;3.38;3.17;;;;;;;24.48;43.18;94514.91;4927654;29;20027;-74
2021/08/30 11:54:36;;;;;;;3.25;3.05;;;;;;;24.20;43.06;94499.59;4926594;29;20123;-73
2021/08/30 11:57:09;;;;;;;2.78;2.58;;;;;;;24.66;43.95;94513.53;4927761;29;20031;-74
2021/08/30 11:59:55;;;;;;;3.38;3.10;;;;;;;24.62;41.50;94509.88;4926463;29;20064;-74
2021/08/30 12:02:21;;;;;;;2.53;2.42;;;;;;;24.50;43.35;94509.34;4926810;29;20083;-75
2021/08/30 12:04:46;;;;;;;2.60;2.47;;;;;;;24.33;40.59;94506.19;4927489;29;20058;-74
2021/08/30 12:07:16;;;;;;;2.78;2.58;;;;;;;24.24;41.12;94500.63;4927188;29;20039;-74
2021/08/30 12:09:45;;;;;;;2.72;2.53;;;;;;;24.35;42.15;94501.41;4911366;29;20024;-73
2021/08/30 12:12:27;;;;;;;2.50;2.30;;;;;;;24.34;41.41;94495.31;4928235;29;20067;-74
2021/08/30 12:15:21;;;;;;;2.28;2.15;;;;;;;24.56;41.59;94503.00;4931144;29;20063;-73
2021/08/30 12:17:51;;;;;;;3.17;2.97;;;;;;;24.41;42.84;94492.41;4929065;29;20432;-75
2021/08/30 12:20:19;;;;;;;2.45;2.25;;;;;;;24.46;40.01;94497.72;4930665;29;20035;-72
2021/08/30 12:22:52;;;;;;;4.53;2.58;;;;;;;24.16;40.87;94487.94;4931156;29;20027;-72
2021/08/30 12:25:21;;;;;;;3.08;2.88;;;;;;;24.45;42.83;94481.03;4930307;29;20019;-71
2021/08/30 12:27:47;;;;;;;3.05;2.85;;;;;;;24.31;42.24;94492.41;4930639;29;20024;-73
2021/08/30 12:30:16;;;;;;;3.60;3.33;;;;;;;24.35;43.12;94488.97;4930389;29;20055;-72
2021/08/30 12:33:00;;;;;;;4.40;4.00;;;;;;;24.31;44.64;94479.19;4932301;29;20024;-73
2021/08/30 12:35:40;;;;;;;3.45;3.25;;;;;;;24.52;44.78;94486.84;4930975;29;20028;-71
2021/08/30 12:38:11;;;;;;;4.05;3.67;;;;;;;24.40;44.91;94486.31;4930176;29;20055;-72
2021/08/30 12:40:38;;;;;;;3.53;3.22;;;;;;;24.55;44.14;94496.91;4930375;29;20028;-73
2021/08/30 12:43:04;;;;;;;4.13;3.72;;;;;;;24.41;44.05;94493.22;4930251;29;20032;-75
2021/08/30 12:45:29;;;;;;;3.60;3.40;;;;;;;24.63;46.44;94491.03;4930372;29;20061;-73
2021/08/30 12:47:55;;;;;;;4.03;3.58;;;;;;;24.69;44.77;94491.03;4930541;29;20497;-73
2021/08/30 12:50:21;;;;;;;4.15;3.85;;;;;;;24.51;45.96;94492.38;4930131;29;20087;-71
2021/08/30 12:52:46;;;;;;;4.32;4.03;;;;;;;24.49;45.26;94491.88;4930298;29;20087;-73
2021/08/30 12:55:12;;;;;;;3.75;3.55;;;;;;;24.73;46.45;94492.06;4930936;29;20075;-73
2021/08/30 12:57:38;;;;;;;3.90;3.70;;;;;;;24.72;44.93;94485.19;4931532;29;20485;-76
2021/08/30 13:00:05;;;;;;;4.40;4.10;;;;;;;24.65;45.13;94480.97;4929889;29;20031;-79
2021/08/30 13:02:31;;;;;;;4.30;4.00;;;;;;;24.93;45.69;94482.22;4929940;29;20048;-73
2021/08/30 13:04:57;;;;;;;4.00;3.70;;;;;;;24.67;44.15;94472.75;4929927;29;20071;-75
2021/08/30 13:07:22;;;;;;;4.07;3.78;;;;;;;24.44;45.23;94481.28;4929701;29;20031;-72
2021/08/30 13:09:48;;;;;;;4.15;3.85;;;;;;;24.33;43.48;94480.53;4931303;29;20031;-74
2021/08/30 13:12:13;;;;;;;4.00;3.70;;;;;;;24.42;44.62;94481.56;4929922;29;20534;-75
2021/08/30 13:14:39;;;;;;;3.78;3.58;;;;;;;24.87;43.91;94471.91;4931534;29;20055;-73
2021/08/30 13:17:04;;;;;;;3.65;3.45;;;;;;;24.67;43.85;94481.50;4929626;29;20044;-72
2021/08/30 13:19:30;;;;;;;4.13;3.83;;;;;;;24.41;43.38;94474.66;4930022;29;20035;-74
2021/08/30 13:21:55;;;;;;;3.75;3.55;;;;;;;24.46;44.26;94482.63;4929259;29;20058;-72
2021/08/30 13:24:21;;;;;;;3.92;3.63;;;;;;;24.24;44.00;94482.09;4929762;29;20370;-75
2021/08/30 13:26:46;;;;;;;3.90;3.70;;;;;;;24.18;44.08;94474.47;4913912;29;20432;-73
2021/08/30 13:29:12;;;;;;;4.15;3.83;;;;;;;24.13;45.20;94481.34;4929468;29;20563;-73
2021/08/30 13:31:37;;;;;;;4.15;3.85;;;;;;;24.56;46.00;94471.22;4929568;29;20039;-77
2021/08/30 13:34:03;;;;;;;4.28;3.97;;;;;;;24.71;44.83;94483.59;4913372;29;20040;-76
2021/08/30 13:36:28;;;;;;;4.00;3.58;;;;;;;24.54;46.29;94484.69;4929660;29;20082;-74
2021/08/30 13:38:54;;;;;;;3.83;3.53;;;;;;;24.61;44.95;94476.47;4928865;29;20071;-75
2021/08/30 13:41:19;;;;;;;4.10;3.70;;;;;;;24.48;42.54;94485.78;4929731;29;20032;-72
2021/08/30 13:43:45;;;;;;;3.97;3.78;;;;;;;24.37;44.69;94483.44;4928820;29;20036;-74
2021/08/30 13:46:10;;;;;;;4.07;3.67;;;;;;;24.30;44.15;94481.06;4929317;29;20047;-73
2021/08/30 13:48:40;;;;;;;3.83;3.60;;;;;;;24.49;44.48;94476.78;4929816;29;20035;-74
2021/08/30 13:51:06;;;;;;;4.35;4.05;;;;;;;24.51;43.93;94472.00;4929030;29;20056;-73
2021/08/30 13:53:31;;;;;;;4.07;3.78;;;;;;;24.66;44.02;94479.91;4929429;29;20763;-73
2021/08/30 13:55:56;;;;;;;4.07;3.78;;;;;;;24.55;45.32;94488.94;4928536;29;20118;-75
2021/08/30 13:58:22;;;;;;;4.80;3.83;;;;;;;24.62;45.33;94484.16;4930576;29;20657;-73
2021/08/30 14:00:47;;;;;;;3.85;3.60;;;;;;;24.57;45.99;94483.38;4912291;29;20028;-74
2021/08/30 14:03:13;;;;;;;4.05;3.75;;;;;;;24.35;45.32;94483.69;4929298;29;20031;-73
2021/08/30 14:05:38;;;;;;;4.15;3.85;;;;;;;24.31;44.94;94490.56;4913002;29;20043;-73
2021/08/30 14:08:04;;;;;;;4.50;4.07;;;;;;;24.38;45.64;94479.69;4913275;29;20493;-72
2021/08/30 14:10:30;;;;;;;4.70;3.90;;;;;;;24.29;47.31;94484.75;4929832;29;20102;-74
2021/08/30 14:12:55;;;;;;;4.30;3.90;;;;;;;24.53;46.17;94485.00;4929911;29;20038;-75
2021/08/30 14:15:21;;;;;;;4.25;3.92;;;;;;;24.41;46.41;94482.59;4929468;29;20043;-72
2021/08/30 14:17:47;;;;;;;5.75;3.45;;;;;;;24.35;46.12;94483.69;4928796;29;20027;-72
2021/08/30 14:20:13;;;;;;;4.82;4.38;;;;;;;24.21;46.95;94482.63;4929053;29;20543;-76
2021/08/30 14:22:38;;;;;;;4.30;4.00;;;;;;;24.34;46.02;94479.44;4913209;29;20028;-74
2021/08/30 14:25:04;;;;;;;4.40;3.97;;;;;;;24.27;46.19;94480.78;4928961;29;20042;-74
2021/08/30 14:27:30;;;;;;;4.68;4.28;;;;;;;24.24;47.37;94481.34;4929828;29;20070;-74
2021/08/30 14:29:55;;;;;;;4.35;4.03;;;;;;;24.40;46.18;94493.50;4928705;29;20434;-73
2021/08/30 14:32:21;;;;;;;4.88;4.25;;;;;;;24.26;46.62;94487.94;4930540;29;20060;-74
2021/08/30 14:34:47;;;;;;;5.20;4.35;;;;;;;24.19;46.49;94490.06;4929461;29;20031;-74
2021/08/30 14:37:14;;;;;;;5.10;4.80;;;;;;;24.18;46.95;94490.34;4928694;29;20027;-73
2021/08/30 14:39:39;;;;;;;4.60;4.20;;;;;;;24.10;47.40;94489.78;4928375;29;20042;-73
2021/08/30 14:42:06;;;;;;;4.18;3.88;;;;;;;24.09;48.04;94482.88;4928907;29;20027;-73
2021/08/30 14:44:31;;;;;;;5.65;4.60;;;;;;;24.09;48.72;94482.88;4928696;29;20114;-74
2021/08/30 14:46:57;;;;;;;4.68;4.28;;;;;;;24.09;47.09;94482.88;4929816;29;20107;-71
2021/08/30 14:49:22;;;;;;;5.82;4.68;;;;;;;24.08;48.29;94475.22;4928995;29;20031;-71
2021/08/30 14:51:49;;;;;;;9.85;4.97;;;;;;;23.98;48.14;94483.16;4928266;29;20046;-71
2021/08/30 14:54:15;;;;;;;5.05;4.65;;;;;;;24.00;47.27;94484.50;4928481;29;20028;-74
2021/08/30 14:56:40;;;;;;;4.82;4.43;;;;;;;24.12;47.04;94482.38;4929429;29;20024;-74
2021/08/30 14:59:05;;;;;;;4.88;4.47;;;;;;;23.96;47.38;94477.34;4929849;29;20032;-73
2021/08/30 15:01:31;;;;;;;5.32;4.88;;;;;;;24.00;47.09;94473.91;4929366;29;20510;-73
2021/08/30 15:03:57;;;;;;;4.65;4.22;;;;;;;23.74;46.96;94477.59;4928325;29;20028;-73
2021/08/30 15:06:22;;;;;;;6.82;4.55;;;;;;;23.79;48.35;94479.47;4927187;29;20059;-72
2021/08/30 15:08:48;;;;;;;5.00;4.60;;;;;;;23.84;47.62;94485.53;4927177;29;20485;-73
2021/08/30 15:11:13;;;;;;;5.22;4.82;;;;;;;23.82;47.70;94487.66;4929480;29;20051;-72
2021/08/30 15:13:39;;;;;;;4.30;3.95;;;;;;;23.72;48.07;94486.88;4927959;29;20042;-73
2021/08/30 15:16:07;;;;;;;4.90;4.20;;;;;;;23.57;47.74;94487.63;4928032;29;20035;-73
2021/08/30 15:18:32;;;;;;;4.85;4.32;;;;;;;23.54;47.99;94486.31;4912373;29;20119;-73
2021/08/30 15:20:57;;;;;;;5.05;4.70;;;;;;;23.51;48.33;94486.84;4928132;29;20500;-70
2021/08/30 15:23:23;;;;;;;5.60;5.05;;;;;;;23.46;48.58;94494.75;4928252;29;20549;-72
2021/08/30 15:25:50;;;;;;;5.60;5.13;;;;;;;23.40;47.67;94485.25;4928035;29;20032;-73
2021/08/30 15:28:18;;;;;;;6.00;5.40;;;;;;;23.42;48.50;94487.59;4928442;29;20111;-75
2021/08/30 15:30:48;;;;;;;5.10;4.80;;;;;;;23.31;47.97;94489.38;4927569;29;20027;-73
2021/08/30 15:33:14;;;;;;;5.38;4.97;;;;;;;23.22;48.53;94490.97;4927876;29;20048;-72
2021/08/30 15:35:40;;;;;;;5.35;4.93;;;;;;;23.17;48.21;94482.22;4927384;29;20024;-72
2021/08/30 15:38:05;;;;;;;5.10;4.80;;;;;;;22.97;47.65;94491.69;4927929;29;20035;-73
2021/08/30 15:40:31;;;;;;;5.65;5.25;;;;;;;22.95;48.24;94487.72;4912047;29;20023;-74
2021/08/30 15:42:56;;;;;;;6.50;4.68;;;;;;;22.87;48.82;94496.91;4912301;29;20028;-74
2021/08/30 15:45:22;;;;;;;5.50;5.10;;;;;;;22.94;49.11;94502.75;4927822;29;20095;-73
2021/08/30 15:47:48;;;;;;;5.55;5.05;;;;;;;22.86;49.23;94497.19;4928054;29;20428;-73
2021/08/30 15:50:14;;;;;;;6.05;5.55;;;;;;;22.72;51.72;94506.63;4929034;29;20020;-72
2021/08/30 15:52:40;;;;;;;6.57;4.55;;;;;;;22.59;51.05;94494.66;4927584;29;20034;-73
2021/08/30 15:55:06;;;;;;;5.78;5.32;;;;;;;22.53;51.21;94508.88;4927916;29;20042;-73
2021/08/30 15:57:31;;;;;;;5.60;5.10;;;;;;;22.45;52.05;94514.63;4927626;29;20035;-71
2021/08/30 15:59:57;;;;;;;5.80;5.40;;;;;;;22.33;52.44;94506.91;4927869;29;20031;-73
2021/08/30 16:02:22;;;;;;;5.47;4.97;;;;;;;22.19;52.34;94511.00;4927569;29;20051;-72
2021/08/30 16:04:49;;;;;;;5.00;4.70;;;;;;;22.15;52.41;94520.50;4911287;29;20027;-73
2021/08/30 16:07:14;;;;;;;5.80;5.40;;;;;;;21.96;53.39;94527.97;4927601;29;20030;-73
2021/08/30 16:09:40;;;;;;;5.47;4.93;;;;;;;21.86;53.55;94516.53;4928553;29;20397;-73
2021/08/30 16:12:05;;;;;;;5.80;5.38;;;;;;;21.81;53.50;94521.75;4927742;29;20459;-72
2021/08/30 16:14:35;;;;;;;5.45;4.97;;;;;;;21.76;53.71;94516.44;4926749;29;20035;-72
2021/08/30 16:17:00;;;;;;;;;;;;;;;21.59;54.71;94531.56;4929224;29;20144;-72
2021/08/30 16:19:26;;;;;;;5.28;4.88;;;;;;;21.54;54.52;94533.09;4928916;29;20010;-74
2021/08/30 16:21:51;;;;;;;5.32;4.93;;;;;;;21.43;55.13;94526.16;4927616;29;20031;-72
2021/08/30 16:24:17;;;;;;;5.30;4.90;;;;;;;21.33;55.34;94535.78;4927761;29;20028;-74
2021/08/30 16:26:42;;;;;;;6.57;5.50;;;;;;;21.15;56.31;94530.84;4928143;29;20040;-72
2021/08/30 16:29:08;;;;;;;5.43;5.03;;;;;;;21.07;57.56;94539.13;4911782;29;20501;-74
2021/08/30 16:31:34;;;;;;;5.85;5.03;;;;;;;20.98;57.78;94544.84;4926406;29;20404;-72